Ambridge, Pennsylvania
Current Conditions -  °F | °C
As of 5:51 AM on Sunday 23 Nov 2014 (Local Time) from KPIT Reporting Station
Overcast Overcast  
Wind Chill:   Ceiling: 4400
Heat Index:   Visibility: 10mi
Dew Point: -1°   Wind: 5mph
Humidity: 52%   Direction: 150°SSE
Pressure: 30.08"   Gusts: NA
Location:  40.59°N, 80.23°W
Report Text: KPIT 231051Z 15004KT 10SM BKN044 OVC055 09/M01 A3008 RMK AO2 SLP198 T00891006
Loading
Personal Weather Stations






























Interactive Weather Map New forecast layout! Learn more

10-Day Weather Forecast

Advertisements
Track Severe Weather on mobile